sensor_id;sensor_type;location;lat;lon;timestamp;pressure;altitude;pressure_sealevel;temperature;humidity
21594;BME280;10959;51.328;7.322;2023-05-21T00:02:08;74103.88;;;-147.06;56.55
21594;BME280;10959;51.328;7.322;2023-05-21T00:04:37;74105.94;;;-147.06;56.41
21594;BME280;10959;51.328;7.322;2023-05-21T00:07:04;74095.69;;;-147.06;56.18
21594;BME280;10959;51.328;7.322;2023-05-21T00:09:32;74093.66;;;-147.06;56.13
21594;BME280;10959;51.328;7.322;2023-05-21T00:11:59;74089.53;;;-147.06;56.32
21594;BME280;10959;51.328;7.322;2023-05-21T00:14:26;74087.50;;;-147.06;56.17
21594;BME280;10959;51.328;7.322;2023-05-21T00:16:52;74081.34;;;-147.06;56.09
21594;BME280;10959;51.328;7.322;2023-05-21T00:19:19;74085.44;;;-147.06;55.69
21594;BME280;10959;51.328;7.322;2023-05-21T00:21:47;74085.44;;;-147.06;55.83
21594;BME280;10959;51.328;7.322;2023-05-21T00:24:14;74081.34;;;-147.06;55.64
21594;BME280;10959;51.328;7.322;2023-05-21T00:26:40;74073.16;;;-147.06;55.35
21594;BME280;10959;51.328;7.322;2023-05-21T00:29:07;74069.06;;;-147.06;55.26
21594;BME280;10959;51.328;7.322;2023-05-21T00:31:33;74069.06;;;-147.06;55.40
21594;BME280;10959;51.328;7.322;2023-05-21T00:34:00;74069.06;;;-147.06;55.52
21594;BME280;10959;51.328;7.322;2023-05-21T00:36:26;74069.06;;;-147.06;55.53
21594;BME280;10959;51.328;7.322;2023-05-21T00:38:54;74069.06;;;-147.06;55.05
21594;BME280;10959;51.328;7.322;2023-05-21T00:41:21;74069.06;;;-147.06;55.03
21594;BME280;10959;51.328;7.322;2023-05-21T00:43:49;74069.06;;;-147.06;54.99
21594;BME280;10959;51.328;7.322;2023-05-21T00:46:18;74073.16;;;-147.06;55.06
21594;BME280;10959;51.328;7.322;2023-05-21T00:48:45;74073.16;;;-147.06;55.10
21594;BME280;10959;51.328;7.322;2023-05-21T00:51:12;74073.16;;;-147.06;55.17
21594;BME280;10959;51.328;7.322;2023-05-21T00:53:40;74073.16;;;-147.06;55.08
21594;BME280;10959;51.328;7.322;2023-05-21T00:56:08;74077.25;;;-147.06;55.58
21594;BME280;10959;51.328;7.322;2023-05-21T00:58:34;74075.22;;;-147.06;55.68
21594;BME280;10959;51.328;7.322;2023-05-21T01:01:02;74081.34;;;-147.06;56.29
21594;BME280;10959;51.328;7.322;2023-05-21T01:03:31;74089.53;;;-147.06;56.48
21594;BME280;10959;51.328;7.322;2023-05-21T01:06:03;74099.78;;;-147.06;56.75
21594;BME280;10959;51.328;7.322;2023-05-21T01:08:30;74105.94;;;-147.06;56.95
21594;BME280;10959;51.328;7.322;2023-05-21T01:10:59;74101.84;;;-147.06;56.89
21594;BME280;10959;51.328;7.322;2023-05-21T01:13:28;74110.03;;;-147.06;57.03
21594;BME280;10959;51.328;7.322;2023-05-21T01:15:55;74105.94;;;-147.06;57.18
21594;BME280;10959;51.328;7.322;2023-05-21T01:18:23;74114.13;;;-147.06;57.42
21594;BME280;10959;51.328;7.322;2023-05-21T01:20:50;74114.13;;;-147.06;57.51
21594;BME280;10959;51.328;7.322;2023-05-21T01:23:19;74114.13;;;-147.06;57.44
21594;BME280;10959;51.328;7.322;2023-05-21T01:25:46;74114.13;;;-147.06;57.54
21594;BME280;10959;51.328;7.322;2023-05-21T01:28:13;74114.13;;;-147.06;57.06
21594;BME280;10959;51.328;7.322;2023-05-21T01:30:40;74114.13;;;-147.06;57.02
21594;BME280;10959;51.328;7.322;2023-05-21T01:33:12;74110.03;;;-147.06;56.69
21594;BME280;10959;51.328;7.322;2023-05-21T01:35:43;74101.84;;;-147.06;56.41
21594;BME280;10959;51.328;7.322;2023-05-21T01:38:16;74103.88;;;-147.06;56.33
21594;BME280;10959;51.328;7.322;2023-05-21T01:40:52;74114.13;;;-147.06;56.62
21594;BME280;10959;51.328;7.322;2023-05-21T01:43:19;74097.75;;;-147.06;56.20
21594;BME280;10959;51.328;7.322;2023-05-21T01:45:50;74110.03;;;-147.06;56.50
21594;BME280;10959;51.328;7.322;2023-05-21T01:48:19;74114.13;;;-147.06;56.96
21594;BME280;10959;51.328;7.322;2023-05-21T01:50:47;74110.03;;;-147.06;56.85
21594;BME280;10959;51.328;7.322;2023-05-21T01:53:15;74116.19;;;-147.06;56.94
21594;BME280;10959;51.328;7.322;2023-05-21T01:55:41;74110.03;;;-147.06;56.75
21594;BME280;10959;51.328;7.322;2023-05-21T01:58:10;74118.22;;;-147.06;56.83
21594;BME280;10959;51.328;7.322;2023-05-21T02:00:36;74114.13;;;-147.06;56.91
21594;BME280;10959;51.328;7.322;2023-05-21T02:03:04;74110.03;;;-147.06;56.69
21594;BME280;10959;51.328;7.322;2023-05-21T02:05:31;74105.94;;;-147.06;56.66
21594;BME280;10959;51.328;7.322;2023-05-21T02:07:57;74114.13;;;-147.06;56.55
21594;BME280;10959;51.328;7.322;2023-05-21T02:10:25;74110.03;;;-147.06;56.63
21594;BME280;10959;51.328;7.322;2023-05-21T02:12:51;74110.03;;;-147.06;56.46
21594;BME280;10959;51.328;7.322;2023-05-21T02:15:19;74114.13;;;-147.06;56.55
21594;BME280;10959;51.328;7.322;2023-05-21T02:17:46;74114.13;;;-147.06;56.72
21594;BME280;10959;51.328;7.322;2023-05-21T02:20:15;74110.03;;;-147.06;56.67
21594;BME280;10959;51.328;7.322;2023-05-21T02:22:43;74118.22;;;-147.06;56.98
21594;BME280;10959;51.328;7.322;2023-05-21T02:25:12;74122.31;;;-147.06;57.12
21594;BME280;10959;51.328;7.322;2023-05-21T02:27:39;74130.53;;;-147.06;57.14
21594;BME280;10959;51.328;7.322;2023-05-21T02:30:08;74134.63;;;-147.06;57.51
21594;BME280;10959;51.328;7.322;2023-05-21T02:32:36;74126.41;;;-147.06;56.97
21594;BME280;10959;51.328;7.322;2023-05-21T02:35:04;74128.47;;;-147.06;56.91
21594;BME280;10959;51.328;7.322;2023-05-21T02:37:31;74126.41;;;-147.06;57.00
21594;BME280;10959;51.328;7.322;2023-05-21T02:39:58;74114.13;;;-147.06;56.75
21594;BME280;10959;51.328;7.322;2023-05-21T02:42:25;74112.09;;;-147.06;56.82
21594;BME280;10959;51.328;7.322;2023-05-21T02:44:52;74128.47;;;-147.06;57.31
21594;BME280;10959;51.328;7.322;2023-05-21T02:47:19;74130.53;;;-147.06;57.32
21594;BME280;10959;51.328;7.322;2023-05-21T02:49:48;74146.91;;;-147.06;57.60
21594;BME280;10959;51.328;7.322;2023-05-21T02:52:15;74148.97;;;-147.06;57.72
21594;BME280;10959;51.328;7.322;2023-05-21T02:54:42;74151.00;;;-147.06;57.91
21594;BME280;10959;51.328;7.322;2023-05-21T02:57:09;74155.09;;;-147.06;58.10
21594;BME280;10959;51.328;7.322;2023-05-21T02:59:35;74146.91;;;-147.06;57.83
21594;BME280;10959;51.328;7.322;2023-05-21T03:02:02;74151.00;;;-147.06;58.04
21594;BME280;10959;51.328;7.322;2023-05-21T03:04:29;74146.91;;;-147.06;58.28
21594;BME280;10959;51.328;7.322;2023-05-21T03:06:58;74146.91;;;-147.06;58.00
21594;BME280;10959;51.328;7.322;2023-05-21T03:09:26;74146.91;;;-147.06;57.95
21594;BME280;10959;51.328;7.322;2023-05-21T03:11:53;74142.81;;;-147.06;58.02
21594;BME280;10959;51.328;7.322;2023-05-21T03:14:19;74142.81;;;-147.06;58.07
21594;BME280;10959;51.328;7.322;2023-05-21T03:16:46;74142.81;;;-147.06;57.89
21594;BME280;10959;51.328;7.322;2023-05-21T03:19:13;74146.91;;;-147.06;58.04
21594;BME280;10959;51.328;7.322;2023-05-21T03:21:40;74142.81;;;-147.06;58.17
21594;BME280;10959;51.328;7.322;2023-05-21T03:24:08;74146.91;;;-147.06;58.34
21594;BME280;10959;51.328;7.322;2023-05-21T03:26:37;74155.09;;;-147.06;58.54
21594;BME280;10959;51.328;7.322;2023-05-21T03:29:04;74151.00;;;-147.06;58.58
21594;BME280;10959;51.328;7.322;2023-05-21T03:31:30;74151.00;;;-147.06;58.59
21594;BME280;10959;51.328;7.322;2023-05-21T03:33:57;74146.91;;;-147.06;58.20
21594;BME280;10959;51.328;7.322;2023-05-21T03:36:23;74151.00;;;-147.06;58.44
21594;BME280;10959;51.328;7.322;2023-05-21T03:38:50;74155.09;;;-147.06;58.50
21594;BME280;10959;51.328;7.322;2023-05-21T03:41:18;74151.00;;;-147.06;58.61
21594;BME280;10959;51.328;7.322;2023-05-21T03:43:45;74151.00;;;-147.06;58.46
21594;BME280;10959;51.328;7.322;2023-05-21T03:46:11;74165.34;;;-147.06;59.00
21594;BME280;10959;51.328;7.322;2023-05-21T03:48:38;74171.50;;;-147.06;59.21
21594;BME280;10959;51.328;7.322;2023-05-21T03:51:04;74171.50;;;-147.06;59.29
21594;BME280;10959;51.328;7.322;2023-05-21T03:53:32;74167.41;;;-147.06;58.96
21594;BME280;10959;51.328;7.322;2023-05-21T03:55:59;74161.25;;;-147.06;58.96
21594;BME280;10959;51.328;7.322;2023-05-21T03:58:27;74163.28;;;-147.06;58.96
21594;BME280;10959;51.328;7.322;2023-05-21T04:00:53;74155.09;;;-147.06;59.04
21594;BME280;10959;51.328;7.322;2023-05-21T04:03:20;74151.00;;;-147.06;58.68
21594;BME280;10959;51.328;7.322;2023-05-21T04:05:46;74142.81;;;-147.06;58.40
21594;BME280;10959;51.328;7.322;2023-05-21T04:08:13;74153.06;;;-147.06;58.58
21594;BME280;10959;51.328;7.322;2023-05-21T04:10:40;74144.84;;;-147.06;58.54
21594;BME280;10959;51.328;7.322;2023-05-21T04:13:06;74155.09;;;-147.06;58.51
21594;BME280;10959;51.328;7.322;2023-05-21T04:15:34;74155.09;;;-147.06;58.73
21594;BME280;10959;51.328;7.322;2023-05-21T04:18:02;74161.25;;;-147.06;59.21
21594;BME280;10959;51.328;7.322;2023-05-21T04:20:29;74165.34;;;-147.06;59.10
21594;BME280;10959;51.328;7.322;2023-05-21T04:22:55;74163.28;;;-147.06;59.27
21594;BME280;10959;51.328;7.322;2023-05-21T04:25:22;74165.34;;;-147.06;59.47
21594;BME280;10959;51.328;7.322;2023-05-21T04:27:49;74175.59;;;-147.06;59.62
21594;BME280;10959;51.328;7.322;2023-05-21T04:30:16;74173.53;;;-147.06;59.64
21594;BME280;10959;51.328;7.322;2023-05-21T04:32:45;74171.50;;;-147.06;59.46
21594;BME280;10959;51.328;7.322;2023-05-21T04:35:12;74175.59;;;-147.06;59.69
21594;BME280;10959;51.328;7.322;2023-05-21T04:37:39;74171.50;;;-147.06;59.56
21594;BME280;10959;51.328;7.322;2023-05-21T04:40:07;74179.69;;;-147.06;59.78
21594;BME280;10959;51.328;7.322;2023-05-21T04:42:34;74179.69;;;-147.06;59.78
21594;BME280;10959;51.328;7.322;2023-05-21T04:45:00;74183.78;;;-147.06;60.21
21594;BME280;10959;51.328;7.322;2023-05-21T04:47:29;74183.78;;;-147.06;60.42
21594;BME280;10959;51.328;7.322;2023-05-21T04:50:01;74183.78;;;-147.06;60.10
21594;BME280;10959;51.328;7.322;2023-05-21T04:52:28;74198.13;;;-147.06;60.75
21594;BME280;10959;51.328;7.322;2023-05-21T04:54:55;74196.06;;;-147.06;60.91
21594;BME280;10959;51.328;7.322;2023-05-21T04:57:21;74183.78;;;-147.06;60.79
21594;BME280;10959;51.328;7.322;2023-05-21T04:59:48;74167.41;;;-147.06;60.38
21594;BME280;10959;51.328;7.322;2023-05-21T05:02:15;74171.50;;;-147.06;60.56
21594;BME280;10959;51.328;7.322;2023-05-21T05:04:41;74163.28;;;-147.06;60.38
21594;BME280;10959;51.328;7.322;2023-05-21T05:07:09;74155.09;;;-147.06;60.28
21594;BME280;10959;51.328;7.322;2023-05-21T05:09:36;74167.41;;;-147.06;60.49
21594;BME280;10959;51.328;7.322;2023-05-21T05:12:03;74163.28;;;-147.06;60.43
21594;BME280;10959;51.328;7.322;2023-05-21T05:14:29;74155.09;;;-147.06;60.30
21594;BME280;10959;51.328;7.322;2023-05-21T05:16:56;74146.91;;;-147.06;60.08
21594;BME280;10959;51.328;7.322;2023-05-21T05:19:24;74138.72;;;-147.06;60.03
21594;BME280;10959;51.328;7.322;2023-05-21T05:21:51;74138.72;;;-147.06;60.10
21594;BME280;10959;51.328;7.322;2023-05-21T05:24:19;74140.75;;;-147.06;59.96
21594;BME280;10959;51.328;7.322;2023-05-21T05:26:45;74148.97;;;-147.06;60.60
21594;BME280;10959;51.328;7.322;2023-05-21T05:29:12;74142.81;;;-147.06;60.50
21594;BME280;10959;51.328;7.322;2023-05-21T05:31:38;74130.53;;;-147.06;60.38
21594;BME280;10959;51.328;7.322;2023-05-21T05:34:05;74124.38;;;-147.06;60.19
21594;BME280;10959;51.328;7.322;2023-05-21T05:36:32;74122.31;;;-147.06;60.20
21594;BME280;10959;51.328;7.322;2023-05-21T05:38:58;74126.41;;;-147.06;60.26
21594;BME280;10959;51.328;7.322;2023-05-21T05:41:26;74130.53;;;-147.06;60.43
21594;BME280;10959;51.328;7.322;2023-05-21T05:43:53;74130.53;;;-147.06;60.51
21594;BME280;10959;51.328;7.322;2023-05-21T05:46:19;74126.41;;;-147.06;60.52
21594;BME280;10959;51.328;7.322;2023-05-21T05:48:46;74116.19;;;-147.06;60.48
21594;BME280;10959;51.328;7.322;2023-05-21T05:51:13;74112.09;;;-147.06;60.38
21594;BME280;10959;51.328;7.322;2023-05-21T05:53:41;74095.69;;;-147.06;60.31
21594;BME280;10959;51.328;7.322;2023-05-21T05:56:07;74101.84;;;-147.06;60.27
21594;BME280;10959;51.328;7.322;2023-05-21T05:58:35;74089.53;;;-147.06;60.08
21594;BME280;10959;51.328;7.322;2023-05-21T06:01:02;74091.59;;;-147.06;60.21
21594;BME280;10959;51.328;7.322;2023-05-21T06:03:28;74081.34;;;-147.06;60.28
21594;BME280;10959;51.328;7.322;2023-05-21T06:05:55;74073.16;;;-147.06;59.97
21594;BME280;10959;51.328;7.322;2023-05-21T06:08:21;74085.44;;;-147.06;60.36
21594;BME280;10959;51.328;7.322;2023-05-21T06:10:48;74093.66;;;-147.06;60.72
21594;BME280;10959;51.328;7.322;2023-05-21T06:13:15;74089.53;;;-147.06;60.58
21594;BME280;10959;51.328;7.322;2023-05-21T06:15:43;74089.53;;;-147.06;60.29
21594;BME280;10959;51.328;7.322;2023-05-21T06:18:09;74079.31;;;-147.06;60.52
21594;BME280;10959;51.328;7.322;2023-05-21T06:20:36;74073.16;;;-147.06;60.40
21594;BME280;10959;51.328;7.322;2023-05-21T06:23:03;74060.88;;;-147.06;59.98
21594;BME280;10959;51.328;7.322;2023-05-21T06:25:31;74060.88;;;-147.06;59.96
21594;BME280;10959;51.328;7.322;2023-05-21T06:27:58;74060.88;;;-147.06;59.77
21594;BME280;10959;51.328;7.322;2023-05-21T06:30:24;74056.78;;;-147.06;59.93
21594;BME280;10959;51.328;7.322;2023-05-21T06:32:52;74032.19;;;-147.06;59.65
21594;BME280;10959;51.328;7.322;2023-05-21T06:35:19;74064.97;;;-147.06;60.27
21594;BME280;10959;51.328;7.322;2023-05-21T06:37:46;74069.06;;;-147.06;60.35
21594;BME280;10959;51.328;7.322;2023-05-21T06:40:12;74069.06;;;-147.06;60.40
21594;BME280;10959;51.328;7.322;2023-05-21T06:42:39;74052.66;;;-147.06;60.34
21594;BME280;10959;51.328;7.322;2023-05-21T06:45:09;74077.25;;;-147.06;60.91
21594;BME280;10959;51.328;7.322;2023-05-21T06:47:35;74089.53;;;-147.06;61.13
21594;BME280;10959;51.328;7.322;2023-05-21T06:50:04;74081.34;;;-147.06;61.07
21594;BME280;10959;51.328;7.322;2023-05-21T06:52:30;74052.66;;;-147.06;60.81
21594;BME280;10959;51.328;7.322;2023-05-21T06:54:57;74056.78;;;-147.06;60.93
21594;BME280;10959;51.328;7.322;2023-05-21T06:57:23;74046.53;;;-147.06;60.95
21594;BME280;10959;51.328;7.322;2023-05-21T06:59:50;74021.94;;;-147.06;60.69
21594;BME280;10959;51.328;7.322;2023-05-21T07:02:17;74013.75;;;-147.06;60.44
21594;BME280;10959;51.328;7.322;2023-05-21T07:04:44;73999.41;;;-147.06;60.31
21594;BME280;10959;51.328;7.322;2023-05-21T07:07:12;73987.13;;;-147.06;60.12
21594;BME280;10959;51.328;7.322;2023-05-21T07:09:38;73970.72;;;-147.06;59.93
21594;BME280;10959;51.328;7.322;2023-05-21T07:12:05;73966.63;;;-147.06;59.73
21594;BME280;10959;51.328;7.322;2023-05-21T07:14:32;73950.25;;;-147.06;59.36
21594;BME280;10959;51.328;7.322;2023-05-21T07:16:58;73946.16;;;-147.06;59.10
21594;BME280;10959;51.328;7.322;2023-05-21T07:19:25;73933.84;;;-147.06;59.29
21594;BME280;10959;51.328;7.322;2023-05-21T07:21:51;73923.63;;;-147.06;58.90
21594;BME280;10959;51.328;7.322;2023-05-21T07:24:19;73921.56;;;-147.06;58.83
21594;BME280;10959;51.328;7.322;2023-05-21T07:26:46;73925.66;;;-147.06;58.90
21594;BME280;10959;51.328;7.322;2023-05-21T07:29:12;73901.06;;;-147.06;58.73
21594;BME280;10959;51.328;7.322;2023-05-21T07:31:39;73896.97;;;-147.06;58.52
21594;BME280;10959;51.328;7.322;2023-05-21T07:34:05;73892.88;;;-147.06;58.29
21594;BME280;10959;51.328;7.322;2023-05-21T07:36:32;73909.28;;;-147.06;58.78
21594;BME280;10959;51.328;7.322;2023-05-21T07:39:00;73896.97;;;-147.06;58.64
21594;BME280;10959;51.328;7.322;2023-05-21T07:41:29;73913.38;;;-147.06;59.00
21594;BME280;10959;51.328;7.322;2023-05-21T07:43:56;73896.97;;;-147.06;59.02
21594;BME280;10959;51.328;7.322;2023-05-21T07:46:25;73876.50;;;-147.06;58.68
21594;BME280;10959;51.328;7.322;2023-05-21T07:48:52;73847.81;;;-147.06;58.51
21594;BME280;10959;51.328;7.322;2023-05-21T07:51:19;73815.03;;;-147.06;57.83
21594;BME280;10959;51.328;7.322;2023-05-21T07:53:45;73800.69;;;-147.06;57.30
21594;BME280;10959;51.328;7.322;2023-05-21T07:56:12;73813.00;;;-147.06;57.02
21594;BME280;10959;51.328;7.322;2023-05-21T07:58:40;73798.66;;;-147.06;56.91
21594;BME280;10959;51.328;7.322;2023-05-21T08:01:09;73847.81;;;-147.06;57.12
21594;BME280;10959;51.328;7.322;2023-05-21T08:03:36;73835.53;;;-147.06;57.33
21594;BME280;10959;51.328;7.322;2023-05-21T08:06:03;73839.63;;;-147.06;57.23
21594;BME280;10959;51.328;7.322;2023-05-21T08:08:29;73810.94;;;-147.06;57.06
21594;BME280;10959;51.328;7.322;2023-05-21T08:10:56;73806.84;;;-147.06;56.94
21594;BME280;10959;51.328;7.322;2023-05-21T08:13:23;73847.81;;;-147.06;57.10
21594;BME280;10959;51.328;7.322;2023-05-21T08:15:51;73884.69;;;-147.06;57.64
21594;BME280;10959;51.328;7.322;2023-05-21T08:18:18;73896.97;;;-147.06;58.27
21594;BME280;10959;51.328;7.322;2023-05-21T08:20:44;73851.91;;;-147.06;57.78
21594;BME280;10959;51.328;7.322;2023-05-21T08:23:11;73839.63;;;-147.06;57.58
21594;BME280;10959;51.328;7.322;2023-05-21T08:25:37;73847.81;;;-147.06;57.38
21594;BME280;10959;51.328;7.322;2023-05-21T08:28:05;73843.72;;;-147.06;57.51
21594;BME280;10959;51.328;7.322;2023-05-21T08:30:32;73815.03;;;-147.06;57.01
21594;BME280;10959;51.328;7.322;2023-05-21T08:33:00;73827.34;;;-147.06;56.78
21594;BME280;10959;51.328;7.322;2023-05-21T08:35:26;73815.03;;;-147.06;56.93
21594;BME280;10959;51.328;7.322;2023-05-21T08:37:53;73802.75;;;-147.06;56.78
21594;BME280;10959;51.328;7.322;2023-05-21T08:40:19;73813.00;;;-147.06;56.57
21594;BME280;10959;51.328;7.322;2023-05-21T08:42:46;73806.84;;;-147.06;56.56
21594;BME280;10959;51.328;7.322;2023-05-21T08:45:19;73806.84;;;-147.06;56.55
21594;BME280;10959;51.328;7.322;2023-05-21T08:47:46;73774.06;;;-147.06;56.31
21594;BME280;10959;51.328;7.322;2023-05-21T08:50:16;73778.16;;;-147.06;56.16
21594;BME280;10959;51.328;7.322;2023-05-21T08:52:43;73784.31;;;-147.06;56.32
21594;BME280;10959;51.328;7.322;2023-05-21T08:55:10;73798.66;;;-147.06;56.58
21594;BME280;10959;51.328;7.322;2023-05-21T08:57:42;73794.56;;;-147.06;56.74
21594;BME280;10959;51.328;7.322;2023-05-21T09:00:09;73765.88;;;-147.06;56.32
21594;BME280;10959;51.328;7.322;2023-05-21T09:02:37;73749.50;;;-147.06;56.18
21594;BME280;10959;51.328;7.322;2023-05-21T09:05:05;73720.81;;;-147.06;55.92
21594;BME280;10959;51.328;7.322;2023-05-21T09:07:38;73700.31;;;-147.06;55.48
21594;BME280;10959;51.328;7.322;2023-05-21T09:10:11;73688.03;;;-147.06;54.85
21594;BME280;10959;51.328;7.322;2023-05-21T09:12:39;73681.88;;;-147.06;55.21
21594;BME280;10959;51.328;7.322;2023-05-21T09:15:06;73686.00;;;-147.06;55.49
21594;BME280;10959;51.328;7.322;2023-05-21T09:17:33;73665.50;;;-147.06;55.10
21594;BME280;10959;51.328;7.322;2023-05-21T09:20:10;73655.25;;;-147.06;54.83
21594;BME280;10959;51.328;7.322;2023-05-21T09:22:41;73659.34;;;-147.06;54.68
21594;BME280;10959;51.328;7.322;2023-05-21T09:25:09;73622.50;;;-147.06;54.92
21594;BME280;10959;51.328;7.322;2023-05-21T09:27:36;73593.81;;;-147.06;54.68
21594;BME280;10959;51.328;7.322;2023-05-21T09:30:04;73565.13;;;-147.06;54.16
21594;BME280;10959;51.328;7.322;2023-05-21T09:32:34;73540.56;;;-147.06;54.12
21594;BME280;10959;51.328;7.322;2023-05-21T09:35:05;73526.22;;;-147.06;53.95
21594;BME280;10959;51.328;7.322;2023-05-21T09:37:36;73518.03;;;-147.06;52.90
21594;BME280;10959;51.328;7.322;2023-05-21T09:40:09;73548.75;;;-147.06;53.16
21594;BME280;10959;51.328;7.322;2023-05-21T09:42:37;73561.03;;;-147.06;53.69
21594;BME280;10959;51.328;7.322;2023-05-21T09:45:04;73561.03;;;-147.06;53.93
21594;BME280;10959;51.328;7.322;2023-05-21T09:47:31;73573.31;;;-147.06;54.11
21594;BME280;10959;51.328;7.322;2023-05-21T09:49:57;73569.22;;;-147.06;54.16
21594;BME280;10959;51.328;7.322;2023-05-21T09:52:24;73563.09;;;-147.06;54.38
21594;BME280;10959;51.328;7.322;2023-05-21T09:54:52;73536.47;;;-147.06;53.95
21594;BME280;10959;51.328;7.322;2023-05-21T09:57:24;73536.47;;;-147.06;53.56
21594;BME280;10959;51.328;7.322;2023-05-21T09:59:50;73503.69;;;-147.06;53.73
21594;BME280;10959;51.328;7.322;2023-05-21T10:02:19;73483.19;;;-147.06;53.55
21594;BME280;10959;51.328;7.322;2023-05-21T10:04:47;73468.88;;;-147.06;52.73
21594;BME280;10959;51.328;7.322;2023-05-21T10:07:15;73444.28;;;-147.06;52.84
21594;BME280;10959;51.328;7.322;2023-05-21T10:09:43;73438.13;;;-147.06;52.65
21594;BME280;10959;51.328;7.322;2023-05-21T10:12:12;73450.44;;;-147.06;52.82
21594;BME280;10959;51.328;7.322;2023-05-21T10:14:41;73419.69;;;-147.06;52.64
21594;BME280;10959;51.328;7.322;2023-05-21T10:17:11;73405.38;;;-147.06;52.08
21594;BME280;10959;51.328;7.322;2023-05-21T10:19:39;73415.59;;;-147.06;52.00
21594;BME280;10959;51.328;7.322;2023-05-21T10:22:07;73399.22;;;-147.06;52.06
21594;BME280;10959;51.328;7.322;2023-05-21T10:24:35;73411.50;;;-147.06;52.38
21594;BME280;10959;51.328;7.322;2023-05-21T10:27:03;73388.97;;;-147.06;52.65
21594;BME280;10959;51.328;7.322;2023-05-21T10:29:31;73368.50;;;-147.06;52.38
21594;BME280;10959;51.328;7.322;2023-05-21T10:32:00;73401.28;;;-147.06;52.05
21594;BME280;10959;51.328;7.322;2023-05-21T10:34:28;73391.03;;;-147.06;51.99
21594;BME280;10959;51.328;7.322;2023-05-21T10:36:55;73393.06;;;-147.06;52.23
21594;BME280;10959;51.328;7.322;2023-05-21T10:39:24;73421.75;;;-147.06;52.47
21594;BME280;10959;51.328;7.322;2023-05-21T10:42:00;73432.00;;;-147.06;52.79
21594;BME280;10959;51.328;7.322;2023-05-21T10:44:39;73429.94;;;-147.06;52.84
21594;BME280;10959;51.328;7.322;2023-05-21T10:47:27;73425.84;;;-147.06;52.59
21594;BME280;10959;51.328;7.322;2023-05-21T10:50:15;73368.50;;;-147.06;52.73
21594;BME280;10959;51.328;7.322;2023-05-21T10:53:01;73368.50;;;-147.06;52.13
21594;BME280;10959;51.328;7.322;2023-05-21T10:55:41;73358.25;;;-147.06;52.50
21594;BME280;10959;51.328;7.322;2023-05-21T10:58:32;73352.13;;;-147.06;52.58
21594;BME280;10959;51.328;7.322;2023-05-21T11:01:02;73302.94;;;-147.06;51.95
21594;BME280;10959;51.328;7.322;2023-05-21T11:03:30;73319.34;;;-147.06;51.31
21594;BME280;10959;51.328;7.322;2023-05-21T11:06:01;73307.06;;;-147.06;51.94
21594;BME280;10959;51.328;7.322;2023-05-21T11:08:28;73300.91;;;-147.06;51.99
21594;BME280;10959;51.328;7.322;2023-05-21T11:10:56;73311.16;;;-147.06;51.61
21594;BME280;10959;51.328;7.322;2023-05-21T11:13:24;73257.91;;;-147.06;51.99
21594;BME280;10959;51.328;7.322;2023-05-21T11:16:06;73247.66;;;-147.06;51.04
21594;BME280;10959;51.328;7.322;2023-05-21T11:19:02;73286.56;;;-147.06;50.71
21594;BME280;10959;51.328;7.322;2023-05-21T11:21:29;73253.78;;;-147.06;50.69
21594;BME280;10959;51.328;7.322;2023-05-21T11:23:59;73282.47;;;-147.06;51.11
21594;BME280;10959;51.328;7.322;2023-05-21T11:26:28;73235.38;;;-147.06;51.35
21594;BME280;10959;51.328;7.322;2023-05-21T11:29:06;73221.03;;;-147.06;50.58
21594;BME280;10959;51.328;7.322;2023-05-21T11:31:34;73196.44;;;-147.06;49.75
21594;BME280;10959;51.328;7.322;2023-05-21T11:34:14;73196.44;;;-147.06;50.49
21594;BME280;10959;51.328;7.322;2023-05-21T11:36:45;73139.09;;;-147.06;49.75
21594;BME280;10959;51.328;7.322;2023-05-21T11:39:13;73098.13;;;-147.06;49.54
21594;BME280;10959;51.328;7.322;2023-05-21T11:41:51;73089.94;;;-147.06;48.50
21594;BME280;10959;51.328;7.322;2023-05-21T11:44:18;73057.19;;;-147.06;49.02
21594;BME280;10959;51.328;7.322;2023-05-21T11:46:47;73044.88;;;-147.06;48.82
21594;BME280;10959;51.328;7.322;2023-05-21T11:49:15;73048.97;;;-147.06;48.10
21594;BME280;10959;51.328;7.322;2023-05-21T11:51:42;73069.47;;;-147.06;47.87
21594;BME280;10959;51.328;7.322;2023-05-21T11:54:10;73106.34;;;-147.06;48.13
21594;BME280;10959;51.328;7.322;2023-05-21T11:56:37;73118.63;;;-147.06;49.19
21594;BME280;10959;51.328;7.322;2023-05-21T11:59:12;73135.00;;;-147.06;49.29
21594;BME280;10959;51.328;7.322;2023-05-21T12:01:41;73122.72;;;-147.06;49.35
21594;BME280;10959;51.328;7.322;2023-05-21T12:04:07;73089.94;;;-147.06;49.55
21594;BME280;10959;51.328;7.322;2023-05-21T12:06:36;73061.28;;;-147.06;49.24
21594;BME280;10959;51.328;7.322;2023-05-21T12:09:07;73057.19;;;-147.06;49.01
21594;BME280;10959;51.328;7.322;2023-05-21T12:11:34;73055.13;;;-147.06;49.07
21594;BME280;10959;51.328;7.322;2023-05-21T12:14:01;73057.19;;;-147.06;49.17
21594;BME280;10959;51.328;7.322;2023-05-21T12:16:27;73040.78;;;-147.06;48.67
21594;BME280;10959;51.328;7.322;2023-05-21T12:18:54;73044.88;;;-147.06;48.29
21594;BME280;10959;51.328;7.322;2023-05-21T12:21:22;73034.66;;;-147.06;48.45
21594;BME280;10959;51.328;7.322;2023-05-21T12:23:49;73020.31;;;-147.06;48.68
21594;BME280;10959;51.328;7.322;2023-05-21T12:26:16;73001.88;;;-147.06;48.63
21594;BME280;10959;51.328;7.322;2023-05-21T12:28:43;72987.53;;;-147.06;47.73
21594;BME280;10959;51.328;7.322;2023-05-21T12:31:13;72975.25;;;-147.06;48.62
21594;BME280;10959;51.328;7.322;2023-05-21T12:33:43;72962.97;;;-147.06;47.80
21594;BME280;10959;51.328;7.322;2023-05-21T12:36:20;72946.59;;;-147.06;47.47
21594;BME280;10959;51.328;7.322;2023-05-21T12:38:47;72917.91;;;-147.06;47.63
21594;BME280;10959;51.328;7.322;2023-05-21T12:41:15;72913.81;;;-147.06;47.26
21594;BME280;10959;51.328;7.322;2023-05-21T12:43:41;72891.28;;;-147.06;46.81
21594;BME280;10959;51.328;7.322;2023-05-21T12:46:09;72934.28;;;-147.06;46.48